Ashley, Michigan
Current Conditions -  °F | °C
As of 10:35 PM on Saturday 22 Nov 2014 (Local Time) from KAMN Reporting Station
Haze Haze  
Wind Chill:   Ceiling: 800
Heat Index:   Visibility: 3mi
Dew Point:   Wind: 7mph
Humidity: 100%   Direction: 200°SSW
Pressure: 29.88"   Gusts: NA
Location:  43.19°N, 84.47°W
Report Text: KAMN 230335Z AUTO 20006KT 3SM BR BKN008 OVC018 06/06 A2988 RMK AO2 T00600060
Loading
Personal Weather Stations






























Interactive Weather Map New forecast layout! Learn more

10-Day Weather Forecast

Advertisements
Track Severe Weather on mobile